sensor_id;sensor_type;location;lat;lon;timestamp;P1;durP1;ratioP1;P2;durP2;ratioP2
34739;SDS011;20967;48.442;9.994;2023-05-21T00:00:05;31.17;;;13.65;;
34739;SDS011;20967;48.442;9.994;2023-05-21T00:02:35;24.85;;;13.85;;
34739;SDS011;20967;48.442;9.994;2023-05-21T00:05:03;28.47;;;15.45;;
34739;SDS011;20967;48.442;9.994;2023-05-21T00:07:31;23.75;;;12.88;;
34739;SDS011;20967;48.442;9.994;2023-05-21T00:10:01;27.35;;;13.95;;
34739;SDS011;20967;48.442;9.994;2023-05-21T00:12:33;26.30;;;14.30;;
34739;SDS011;20967;48.442;9.994;2023-05-21T00:15:04;28.80;;;14.70;;
34739;SDS011;20967;48.442;9.994;2023-05-21T00:17:36;25.82;;;13.85;;
34739;SDS011;20967;48.442;9.994;2023-05-21T00:20:07;24.85;;;14.33;;
34739;SDS011;20967;48.442;9.994;2023-05-21T00:22:40;28.17;;;16.05;;
34739;SDS011;20967;48.442;9.994;2023-05-21T00:25:07;25.20;;;14.53;;
34739;SDS011;20967;48.442;9.994;2023-05-21T00:27:35;28.87;;;14.50;;
34739;SDS011;20967;48.442;9.994;2023-05-21T00:30:03;24.45;;;13.45;;
34739;SDS011;20967;48.442;9.994;2023-05-21T00:32:33;25.88;;;15.18;;
34739;SDS011;20967;48.442;9.994;2023-05-21T00:35:01;25.30;;;14.93;;
34739;SDS011;20967;48.442;9.994;2023-05-21T00:37:31;27.70;;;15.45;;
34739;SDS011;20967;48.442;9.994;2023-05-21T00:40:00;30.97;;;14.95;;
34739;SDS011;20967;48.442;9.994;2023-05-21T00:42:31;31.75;;;16.17;;
34739;SDS011;20967;48.442;9.994;2023-05-21T00:44:59;29.80;;;14.53;;
34739;SDS011;20967;48.442;9.994;2023-05-21T00:47:28;28.20;;;16.07;;
34739;SDS011;20967;48.442;9.994;2023-05-21T00:49:58;26.73;;;15.95;;
34739;SDS011;20967;48.442;9.994;2023-05-21T00:52:29;29.65;;;15.38;;
34739;SDS011;20967;48.442;9.994;2023-05-21T00:54:58;28.20;;;16.20;;
34739;SDS011;20967;48.442;9.994;2023-05-21T00:57:27;30.02;;;15.72;;
34739;SDS011;20967;48.442;9.994;2023-05-21T00:59:56;27.65;;;15.68;;
34739;SDS011;20967;48.442;9.994;2023-05-21T01:02:24;28.42;;;15.88;;
34739;SDS011;20967;48.442;9.994;2023-05-21T01:04:53;32.08;;;16.52;;
34739;SDS011;20967;48.442;9.994;2023-05-21T01:07:21;28.23;;;15.30;;
34739;SDS011;20967;48.442;9.994;2023-05-21T01:09:49;26.90;;;15.03;;
34739;SDS011;20967;48.442;9.994;2023-05-21T01:12:17;26.40;;;15.53;;
34739;SDS011;20967;48.442;9.994;2023-05-21T01:14:46;27.67;;;16.23;;
34739;SDS011;20967;48.442;9.994;2023-05-21T01:17:15;29.05;;;15.60;;
34739;SDS011;20967;48.442;9.994;2023-05-21T01:19:45;25.17;;;15.58;;
34739;SDS011;20967;48.442;9.994;2023-05-21T01:22:13;28.80;;;15.23;;
34739;SDS011;20967;48.442;9.994;2023-05-21T01:24:44;27.30;;;15.45;;
34739;SDS011;20967;48.442;9.994;2023-05-21T01:27:12;33.67;;;16.45;;
34739;SDS011;20967;48.442;9.994;2023-05-21T01:29:40;29.25;;;15.78;;
34739;SDS011;20967;48.442;9.994;2023-05-21T01:37:26;26.50;;;15.58;;
34739;SDS011;20967;48.442;9.994;2023-05-21T01:42:31;36.28;;;17.67;;
34739;SDS011;20967;48.442;9.994;2023-05-21T01:45:01;27.32;;;15.58;;
34739;SDS011;20967;48.442;9.994;2023-05-21T01:47:31;30.90;;;15.88;;
34739;SDS011;20967;48.442;9.994;2023-05-21T01:50:00;30.72;;;15.88;;
34739;SDS011;20967;48.442;9.994;2023-05-21T01:52:30;31.52;;;16.02;;
34739;SDS011;20967;48.442;9.994;2023-05-21T01:54:58;28.67;;;16.10;;
34739;SDS011;20967;48.442;9.994;2023-05-21T01:57:26;31.77;;;16.73;;
34739;SDS011;20967;48.442;9.994;2023-05-21T01:59:53;35.45;;;17.30;;
34739;SDS011;20967;48.442;9.994;2023-05-21T02:02:23;29.60;;;17.23;;
34739;SDS011;20967;48.442;9.994;2023-05-21T02:04:50;26.90;;;15.95;;
34739;SDS011;20967;48.442;9.994;2023-05-21T02:07:18;30.60;;;17.30;;
34739;SDS011;20967;48.442;9.994;2023-05-21T02:09:47;25.77;;;15.50;;
34739;SDS011;20967;48.442;9.994;2023-05-21T02:12:15;29.45;;;16.90;;
34739;SDS011;20967;48.442;9.994;2023-05-21T02:14:44;28.80;;;16.62;;
34739;SDS011;20967;48.442;9.994;2023-05-21T02:17:13;28.25;;;16.42;;
34739;SDS011;20967;48.442;9.994;2023-05-21T02:19:42;29.55;;;17.07;;
34739;SDS011;20967;48.442;9.994;2023-05-21T02:22:10;32.15;;;17.20;;
34739;SDS011;20967;48.442;9.994;2023-05-21T02:24:38;25.12;;;16.05;;
34739;SDS011;20967;48.442;9.994;2023-05-21T02:27:07;30.72;;;17.73;;
34739;SDS011;20967;48.442;9.994;2023-05-21T02:29:35;34.13;;;17.92;;
34739;SDS011;20967;48.442;9.994;2023-05-21T02:32:03;33.10;;;18.73;;
34739;SDS011;20967;48.442;9.994;2023-05-21T02:34:33;33.18;;;17.17;;
34739;SDS011;20967;48.442;9.994;2023-05-21T02:37:02;31.15;;;17.80;;
34739;SDS011;20967;48.442;9.994;2023-05-21T02:39:30;33.63;;;17.52;;
34739;SDS011;20967;48.442;9.994;2023-05-21T02:41:57;31.30;;;17.00;;
34739;SDS011;20967;48.442;9.994;2023-05-21T02:44:25;32.08;;;17.77;;
34739;SDS011;20967;48.442;9.994;2023-05-21T02:46:53;33.00;;;17.90;;
34739;SDS011;20967;48.442;9.994;2023-05-21T02:49:21;31.00;;;17.25;;
34739;SDS011;20967;48.442;9.994;2023-05-21T02:51:50;31.93;;;18.57;;
34739;SDS011;20967;48.442;9.994;2023-05-21T02:54:17;27.85;;;17.07;;
34739;SDS011;20967;48.442;9.994;2023-05-21T02:56:45;29.57;;;17.17;;
34739;SDS011;20967;48.442;9.994;2023-05-21T02:59:13;27.82;;;17.02;;
34739;SDS011;20967;48.442;9.994;2023-05-21T03:01:41;29.52;;;17.25;;
34739;SDS011;20967;48.442;9.994;2023-05-21T03:04:10;27.10;;;16.35;;
34739;SDS011;20967;48.442;9.994;2023-05-21T03:06:37;30.60;;;17.85;;
34739;SDS011;20967;48.442;9.994;2023-05-21T03:09:06;30.12;;;16.35;;
34739;SDS011;20967;48.442;9.994;2023-05-21T03:11:34;33.95;;;18.20;;
34739;SDS011;20967;48.442;9.994;2023-05-21T03:14:01;29.65;;;18.12;;
34739;SDS011;20967;48.442;9.994;2023-05-21T03:16:31;31.82;;;18.07;;
34739;SDS011;20967;48.442;9.994;2023-05-21T03:18:59;34.88;;;18.10;;
34739;SDS011;20967;48.442;9.994;2023-05-21T03:21:27;31.75;;;18.48;;
34739;SDS011;20967;48.442;9.994;2023-05-21T03:23:56;33.35;;;17.65;;
34739;SDS011;20967;48.442;9.994;2023-05-21T03:26:24;34.70;;;18.50;;
34739;SDS011;20967;48.442;9.994;2023-05-21T03:28:52;29.75;;;17.65;;
34739;SDS011;20967;48.442;9.994;2023-05-21T03:31:21;34.73;;;18.07;;
34739;SDS011;20967;48.442;9.994;2023-05-21T03:33:50;30.08;;;17.37;;
34739;SDS011;20967;48.442;9.994;2023-05-21T03:36:18;26.70;;;16.27;;
34739;SDS011;20967;48.442;9.994;2023-05-21T03:38:51;30.10;;;16.77;;
34739;SDS011;20967;48.442;9.994;2023-05-21T03:41:19;33.38;;;18.42;;
34739;SDS011;20967;48.442;9.994;2023-05-21T03:43:47;34.30;;;18.07;;
34739;SDS011;20967;48.442;9.994;2023-05-21T03:46:16;30.82;;;17.70;;
34739;SDS011;20967;48.442;9.994;2023-05-21T03:48:44;35.05;;;18.30;;
34739;SDS011;20967;48.442;9.994;2023-05-21T03:51:12;30.23;;;17.82;;
34739;SDS011;20967;48.442;9.994;2023-05-21T03:53:41;30.52;;;17.65;;
34739;SDS011;20967;48.442;9.994;2023-05-21T03:56:08;31.97;;;18.60;;
34739;SDS011;20967;48.442;9.994;2023-05-21T03:58:36;32.13;;;17.20;;
34739;SDS011;20967;48.442;9.994;2023-05-21T04:01:04;30.82;;;17.50;;
34739;SDS011;20967;48.442;9.994;2023-05-21T04:03:34;31.55;;;17.20;;
34739;SDS011;20967;48.442;9.994;2023-05-21T04:06:02;29.90;;;17.42;;
34739;SDS011;20967;48.442;9.994;2023-05-21T04:08:30;28.57;;;15.23;;
34739;SDS011;20967;48.442;9.994;2023-05-21T04:10:58;29.60;;;17.10;;
34739;SDS011;20967;48.442;9.994;2023-05-21T04:13:26;33.15;;;18.30;;
34739;SDS011;20967;48.442;9.994;2023-05-21T04:15:54;31.62;;;17.25;;
34739;SDS011;20967;48.442;9.994;2023-05-21T04:18:26;32.85;;;16.70;;
34739;SDS011;20967;48.442;9.994;2023-05-21T04:20:54;33.55;;;18.62;;
34739;SDS011;20967;48.442;9.994;2023-05-21T04:23:23;28.67;;;16.00;;
34739;SDS011;20967;48.442;9.994;2023-05-21T04:25:52;33.42;;;17.12;;
34739;SDS011;20967;48.442;9.994;2023-05-21T04:28:20;27.80;;;16.32;;
34739;SDS011;20967;48.442;9.994;2023-05-21T04:30:49;28.95;;;16.67;;
34739;SDS011;20967;48.442;9.994;2023-05-21T04:33:16;25.92;;;15.98;;
34739;SDS011;20967;48.442;9.994;2023-05-21T04:35:47;28.32;;;16.35;;
34739;SDS011;20967;48.442;9.994;2023-05-21T04:38:16;30.40;;;15.88;;
34739;SDS011;20967;48.442;9.994;2023-05-21T04:40:50;27.42;;;15.65;;
34739;SDS011;20967;48.442;9.994;2023-05-21T04:43:18;31.20;;;16.62;;
34739;SDS011;20967;48.442;9.994;2023-05-21T04:48:20;29.65;;;15.90;;
34739;SDS011;20967;48.442;9.994;2023-05-21T04:50:50;28.10;;;14.95;;
34739;SDS011;20967;48.442;9.994;2023-05-21T04:53:22;26.40;;;14.80;;
34739;SDS011;20967;48.442;9.994;2023-05-21T04:55:55;26.90;;;15.20;;
34739;SDS011;20967;48.442;9.994;2023-05-21T04:58:24;28.05;;;15.15;;
34739;SDS011;20967;48.442;9.994;2023-05-21T05:00:53;31.70;;;15.13;;
34739;SDS011;20967;48.442;9.994;2023-05-21T05:03:21;30.35;;;15.13;;
34739;SDS011;20967;48.442;9.994;2023-05-21T05:05:48;27.82;;;14.23;;
34739;SDS011;20967;48.442;9.994;2023-05-21T05:08:16;24.25;;;14.58;;
34739;SDS011;20967;48.442;9.994;2023-05-21T05:10:44;25.80;;;14.55;;
34739;SDS011;20967;48.442;9.994;2023-05-21T05:13:12;24.23;;;14.68;;
34739;SDS011;20967;48.442;9.994;2023-05-21T05:15:39;24.10;;;14.18;;
34739;SDS011;20967;48.442;9.994;2023-05-21T05:18:07;27.02;;;13.85;;
34739;SDS011;20967;48.442;9.994;2023-05-21T05:20:36;20.37;;;13.22;;
34739;SDS011;20967;48.442;9.994;2023-05-21T05:23:06;25.77;;;13.43;;
34739;SDS011;20967;48.442;9.994;2023-05-21T05:28:06;24.00;;;13.95;;
34739;SDS011;20967;48.442;9.994;2023-05-21T05:30:34;20.72;;;12.90;;
34739;SDS011;20967;48.442;9.994;2023-05-21T05:33:04;24.15;;;13.28;;
34739;SDS011;20967;48.442;9.994;2023-05-21T05:35:35;20.15;;;12.63;;
34739;SDS011;20967;48.442;9.994;2023-05-21T05:38:02;21.27;;;12.60;;
34739;SDS011;20967;48.442;9.994;2023-05-21T05:40:30;22.55;;;13.03;;
34739;SDS011;20967;48.442;9.994;2023-05-21T05:43:00;18.87;;;11.88;;
34739;SDS011;20967;48.442;9.994;2023-05-21T05:45:28;21.82;;;13.10;;
34739;SDS011;20967;48.442;9.994;2023-05-21T05:47:57;25.57;;;12.65;;
34739;SDS011;20967;48.442;9.994;2023-05-21T05:50:29;19.00;;;12.03;;
34739;SDS011;20967;48.442;9.994;2023-05-21T05:52:57;22.30;;;13.53;;
34739;SDS011;20967;48.442;9.994;2023-05-21T05:55:24;22.05;;;12.25;;
34739;SDS011;20967;48.442;9.994;2023-05-21T05:57:52;21.05;;;11.28;;
34739;SDS011;20967;48.442;9.994;2023-05-21T06:00:20;25.97;;;12.55;;
34739;SDS011;20967;48.442;9.994;2023-05-21T06:02:49;20.52;;;11.65;;
34739;SDS011;20967;48.442;9.994;2023-05-21T06:05:17;20.27;;;11.30;;
34739;SDS011;20967;48.442;9.994;2023-05-21T06:07:45;17.42;;;10.88;;
34739;SDS011;20967;48.442;9.994;2023-05-21T06:10:15;17.00;;;10.90;;
34739;SDS011;20967;48.442;9.994;2023-05-21T06:12:42;19.00;;;11.05;;
34739;SDS011;20967;48.442;9.994;2023-05-21T06:17:45;19.30;;;12.10;;
34739;SDS011;20967;48.442;9.994;2023-05-21T06:20:12;18.15;;;10.38;;
34739;SDS011;20967;48.442;9.994;2023-05-21T06:22:41;21.42;;;10.70;;
34739;SDS011;20967;48.442;9.994;2023-05-21T06:25:10;16.45;;;10.82;;
34739;SDS011;20967;48.442;9.994;2023-05-21T06:27:39;18.50;;;11.57;;
34739;SDS011;20967;48.442;9.994;2023-05-21T06:30:07;19.23;;;11.20;;
34739;SDS011;20967;48.442;9.994;2023-05-21T06:32:35;16.50;;;10.20;;
34739;SDS011;20967;48.442;9.994;2023-05-21T06:35:05;20.55;;;11.33;;
34739;SDS011;20967;48.442;9.994;2023-05-21T06:37:34;19.95;;;11.60;;
34739;SDS011;20967;48.442;9.994;2023-05-21T06:40:03;16.32;;;10.18;;
34739;SDS011;20967;48.442;9.994;2023-05-21T06:42:32;26.00;;;11.30;;
34739;SDS011;20967;48.442;9.994;2023-05-21T06:45:00;16.57;;;10.55;;
34739;SDS011;20967;48.442;9.994;2023-05-21T06:47:28;17.55;;;10.40;;
34739;SDS011;20967;48.442;9.994;2023-05-21T06:49:58;21.73;;;11.68;;
34739;SDS011;20967;48.442;9.994;2023-05-21T06:52:26;21.97;;;11.43;;
34739;SDS011;20967;48.442;9.994;2023-05-21T06:54:53;17.20;;;10.65;;
34739;SDS011;20967;48.442;9.994;2023-05-21T06:57:21;17.12;;;10.30;;
34739;SDS011;20967;48.442;9.994;2023-05-21T06:59:49;21.25;;;10.20;;
34739;SDS011;20967;48.442;9.994;2023-05-21T07:02:17;19.30;;;10.50;;
34739;SDS011;20967;48.442;9.994;2023-05-21T07:04:44;16.85;;;10.45;;
34739;SDS011;20967;48.442;9.994;2023-05-21T07:07:12;16.67;;;9.70;;
34739;SDS011;20967;48.442;9.994;2023-05-21T07:09:42;18.07;;;9.63;;
34739;SDS011;20967;48.442;9.994;2023-05-21T07:12:10;16.07;;;9.55;;
34739;SDS011;20967;48.442;9.994;2023-05-21T07:14:37;19.70;;;10.50;;
34739;SDS011;20967;48.442;9.994;2023-05-21T07:17:05;17.37;;;10.30;;
34739;SDS011;20967;48.442;9.994;2023-05-21T07:19:33;14.75;;;9.33;;
34739;SDS011;20967;48.442;9.994;2023-05-21T07:22:01;16.32;;;10.32;;
34739;SDS011;20967;48.442;9.994;2023-05-21T07:24:32;19.02;;;10.60;;
34739;SDS011;20967;48.442;9.994;2023-05-21T07:27:02;19.57;;;9.93;;
34739;SDS011;20967;48.442;9.994;2023-05-21T07:29:32;15.53;;;9.50;;
34739;SDS011;20967;48.442;9.994;2023-05-21T07:32:01;20.77;;;10.25;;
34739;SDS011;20967;48.442;9.994;2023-05-21T07:34:31;18.35;;;10.70;;
34739;SDS011;20967;48.442;9.994;2023-05-21T07:36:59;17.62;;;10.05;;
34739;SDS011;20967;48.442;9.994;2023-05-21T07:39:26;17.75;;;9.98;;
34739;SDS011;20967;48.442;9.994;2023-05-21T07:41:54;15.10;;;10.18;;
34739;SDS011;20967;48.442;9.994;2023-05-21T07:44:22;15.55;;;9.90;;
34739;SDS011;20967;48.442;9.994;2023-05-21T07:46:52;14.45;;;9.28;;
34739;SDS011;20967;48.442;9.994;2023-05-21T07:49:20;17.50;;;9.40;;
34739;SDS011;20967;48.442;9.994;2023-05-21T07:51:48;16.40;;;9.40;;
34739;SDS011;20967;48.442;9.994;2023-05-21T07:54:19;17.70;;;9.78;;
34739;SDS011;20967;48.442;9.994;2023-05-21T07:56:47;14.85;;;9.13;;
34739;SDS011;20967;48.442;9.994;2023-05-21T07:59:17;13.93;;;8.75;;
34739;SDS011;20967;48.442;9.994;2023-05-21T08:01:47;16.23;;;9.48;;
34739;SDS011;20967;48.442;9.994;2023-05-21T08:04:15;14.65;;;9.25;;
34739;SDS011;20967;48.442;9.994;2023-05-21T08:06:45;15.08;;;9.63;;
34739;SDS011;20967;48.442;9.994;2023-05-21T08:09:13;16.85;;;10.08;;
34739;SDS011;20967;48.442;9.994;2023-05-21T08:11:42;15.18;;;9.53;;
34739;SDS011;20967;48.442;9.994;2023-05-21T08:14:12;14.80;;;9.25;;
34739;SDS011;20967;48.442;9.994;2023-05-21T08:16:47;17.27;;;10.10;;
34739;SDS011;20967;48.442;9.994;2023-05-21T08:19:17;15.28;;;10.68;;
34739;SDS011;20967;48.442;9.994;2023-05-21T08:21:46;17.40;;;10.03;;
34739;SDS011;20967;48.442;9.994;2023-05-21T08:24:15;15.38;;;9.75;;
34739;SDS011;20967;48.442;9.994;2023-05-21T08:26:45;16.67;;;10.50;;
34739;SDS011;20967;48.442;9.994;2023-05-21T08:29:14;15.25;;;10.08;;
34739;SDS011;20967;48.442;9.994;2023-05-21T08:31:44;15.55;;;10.05;;
34739;SDS011;20967;48.442;9.994;2023-05-21T08:34:13;25.52;;;10.48;;
34739;SDS011;20967;48.442;9.994;2023-05-21T08:36:43;20.12;;;10.75;;
34739;SDS011;20967;48.442;9.994;2023-05-21T08:39:11;15.50;;;9.70;;
34739;SDS011;20967;48.442;9.994;2023-05-21T08:41:41;16.97;;;10.13;;
34739;SDS011;20967;48.442;9.994;2023-05-21T08:44:12;16.97;;;10.23;;
34739;SDS011;20967;48.442;9.994;2023-05-21T08:46:40;19.05;;;10.38;;
34739;SDS011;20967;48.442;9.994;2023-05-21T08:49:11;15.85;;;10.20;;
34739;SDS011;20967;48.442;9.994;2023-05-21T08:51:42;15.45;;;9.83;;
34739;SDS011;20967;48.442;9.994;2023-05-21T08:54:11;16.05;;;9.53;;
34739;SDS011;20967;48.442;9.994;2023-05-21T08:56:40;20.95;;;9.68;;
34739;SDS011;20967;48.442;9.994;2023-05-21T09:01:43;18.98;;;9.93;;
34739;SDS011;20967;48.442;9.994;2023-05-21T09:04:12;14.73;;;9.03;;
34739;SDS011;20967;48.442;9.994;2023-05-21T09:09:26;18.45;;;9.80;;
34739;SDS011;20967;48.442;9.994;2023-05-21T09:14:23;17.40;;;10.10;;
34739;SDS011;20967;48.442;9.994;2023-05-21T09:16:51;14.43;;;9.90;;
34739;SDS011;20967;48.442;9.994;2023-05-21T09:19:19;19.12;;;9.68;;
34739;SDS011;20967;48.442;9.994;2023-05-21T09:21:49;17.67;;;8.95;;
34739;SDS011;20967;48.442;9.994;2023-05-21T09:24:22;14.33;;;9.13;;
34739;SDS011;20967;48.442;9.994;2023-05-21T09:26:51;16.07;;;9.20;;
34739;SDS011;20967;48.442;9.994;2023-05-21T09:29:19;14.50;;;9.50;;
34739;SDS011;20967;48.442;9.994;2023-05-21T09:31:54;12.68;;;8.48;;
34739;SDS011;20967;48.442;9.994;2023-05-21T09:34:23;16.07;;;9.55;;
34739;SDS011;20967;48.442;9.994;2023-05-21T09:36:56;17.10;;;8.95;;
34739;SDS011;20967;48.442;9.994;2023-05-21T09:39:27;15.53;;;9.65;;
34739;SDS011;20967;48.442;9.994;2023-05-21T09:41:55;15.72;;;10.10;;
34739;SDS011;20967;48.442;9.994;2023-05-21T09:44:23;16.20;;;9.78;;
34739;SDS011;20967;48.442;9.994;2023-05-21T09:46:57;16.00;;;10.85;;
34739;SDS011;20967;48.442;9.994;2023-05-21T09:49:27;18.25;;;10.15;;
34739;SDS011;20967;48.442;9.994;2023-05-21T09:51:56;19.35;;;10.08;;
34739;SDS011;20967;48.442;9.994;2023-05-21T09:54:30;18.52;;;10.58;;
34739;SDS011;20967;48.442;9.994;2023-05-21T09:59:39;22.90;;;9.33;;
34739;SDS011;20967;48.442;9.994;2023-05-21T10:07:14;19.50;;;10.70;;
34739;SDS011;20967;48.442;9.994;2023-05-21T10:12:23;15.95;;;10.08;;
34739;SDS011;20967;48.442;9.994;2023-05-21T10:14:53;18.80;;;10.15;;
34739;SDS011;20967;48.442;9.994;2023-05-21T10:17:22;13.35;;;8.75;;
34739;SDS011;20967;48.442;9.994;2023-05-21T10:19:55;14.70;;;8.58;;
34739;SDS011;20967;48.442;9.994;2023-05-21T10:22:25;15.08;;;8.93;;
34739;SDS011;20967;48.442;9.994;2023-05-21T10:24:54;14.53;;;9.40;;
34739;SDS011;20967;48.442;9.994;2023-05-21T10:27:22;13.95;;;8.70;;
34739;SDS011;20967;48.442;9.994;2023-05-21T10:29:51;13.28;;;8.58;;
34739;SDS011;20967;48.442;9.994;2023-05-21T10:32:22;13.40;;;8.50;;
34739;SDS011;20967;48.442;9.994;2023-05-21T10:34:52;15.78;;;8.98;;
34739;SDS011;20967;48.442;9.994;2023-05-21T10:37:22;13.15;;;8.60;;
34739;SDS011;20967;48.442;9.994;2023-05-21T10:52:31;19.87;;;9.55;;
34739;SDS011;20967;48.442;9.994;2023-05-21T11:00:01;22.60;;;10.18;;
34739;SDS011;20967;48.442;9.994;2023-05-21T11:02:31;14.53;;;9.28;;
34739;SDS011;20967;48.442;9.994;2023-05-21T11:05:01;20.45;;;9.90;;
34739;SDS011;20967;48.442;9.994;2023-05-21T11:10:28;12.50;;;8.43;;
34739;SDS011;20967;48.442;9.994;2023-05-21T11:13:14;14.87;;;7.93;;
34739;SDS011;20967;48.442;9.994;2023-05-21T11:26:21;11.00;;;7.40;;
34739;SDS011;20967;48.442;9.994;2023-05-21T11:34:28;14.43;;;7.03;;
34739;SDS011;20967;48.442;9.994;2023-05-21T11:36:49;14.80;;;7.00;;
34739;SDS011;20967;48.442;9.994;2023-05-21T11:39:24;13.93;;;7.67;;
34739;SDS011;20967;48.442;9.994;2023-05-21T11:44:46;12.18;;;8.25;;
34739;SDS011;20967;48.442;9.994;2023-05-21T11:47:14;15.95;;;9.38;;
34739;SDS011;20967;48.442;9.994;2023-05-21T11:49:43;13.03;;;8.98;;
34739;SDS011;20967;48.442;9.994;2023-05-21T11:52:12;15.43;;;8.30;;
34739;SDS011;20967;48.442;9.994;2023-05-21T11:54:47;15.80;;;9.33;;
34739;SDS011;20967;48.442;9.994;2023-05-21T11:59:51;13.68;;;7.83;;
34739;SDS011;20967;48.442;9.994;2023-05-21T12:02:21;14.63;;;8.78;;
34739;SDS011;20967;48.442;9.994;2023-05-21T12:04:50;14.63;;;8.23;;
34739;SDS011;20967;48.442;9.994;2023-05-21T12:07:18;14.63;;;8.98;;
34739;SDS011;20967;48.442;9.994;2023-05-21T12:09:47;13.62;;;8.05;;
34739;SDS011;20967;48.442;9.994;2023-05-21T12:12:21;13.72;;;8.03;;
34739;SDS011;20967;48.442;9.994;2023-05-21T12:14:53;13.62;;;8.00;;
34739;SDS011;20967;48.442;9.994;2023-05-21T12:17:21;12.35;;;7.58;;
34739;SDS011;20967;48.442;9.994;2023-05-21T12:19:52;12.60;;;8.08;;
34739;SDS011;20967;48.442;9.994;2023-05-21T12:22:22;17.35;;;9.55;;
34739;SDS011;20967;48.442;9.994;2023-05-21T12:24:52;13.72;;;7.95;;
34739;SDS011;20967;48.442;9.994;2023-05-21T12:27:22;14.47;;;8.35;;
34739;SDS011;20967;48.442;9.994;2023-05-21T12:29:53;14.58;;;9.13;;
34739;SDS011;20967;48.442;9.994;2023-05-21T12:32:21;17.07;;;9.35;;
34739;SDS011;20967;48.442;9.994;2023-05-21T12:34:51;15.65;;;9.35;;
34739;SDS011;20967;48.442;9.994;2023-05-21T12:37:21;18.02;;;8.10;;
34739;SDS011;20967;48.442;9.994;2023-05-21T12:42:24;12.05;;;8.38;;
34739;SDS011;20967;48.442;9.994;2023-05-21T12:44:55;12.78;;;8.28;;
34739;SDS011;20967;48.442;9.994;2023-05-21T12:47:25;12.40;;;8.05;;
34739;SDS011;20967;48.442;9.994;2023-05-21T12:49:57;10.03;;;7.20;;
34739;SDS011;20967;48.442;9.994;2023-05-21T12:54:58;31.70;;;16.00;;
34739;SDS011;20967;48.442;9.994;2023-05-21T12:57:27;22.50;;;12.68;;
34739;SDS011;20967;48.442;9.994;2023-05-21T13:02:39;10.53;;;7.03;;
34739;SDS011;20967;48.442;9.994;2023-05-21T13:05:09;11.45;;;6.90;;
34739;SDS011;20967;48.442;9.994;2023-05-21T13:07:38;11.33;;;6.85;;
34739;SDS011;20967;48.442;9.994;2023-05-21T13:10:08;9.85;;;6.03;;
34739;SDS011;20967;48.442;9.994;2023-05-21T13:12:37;14.75;;;7.35;;
34739;SDS011;20967;48.442;9.994;2023-05-21T13:15:05;11.15;;;7.33;;
34739;SDS011;20967;48.442;9.994;2023-05-21T13:17:33;11.35;;;6.22;;
34739;SDS011;20967;48.442;9.994;2023-05-21T13:20:07;10.28;;;7.08;;
34739;SDS011;20967;48.442;9.994;2023-05-21T13:25:14;11.65;;;6.30;;
34739;SDS011;20967;48.442;9.994;2023-05-21T13:27:47;12.28;;;6.90;;
34739;SDS011;20967;48.442;9.994;2023-05-21T13:30:17;11.00;;;6.47;;
34739;SDS011;20967;48.442;9.994;2023-05-21T13:32:48;10.15;;;5.83;;
34739;SDS011;20967;48.442;9.994;2023-05-21T13:35:17;11.20;;;6.50;;
34739;SDS011;20967;48.442;9.994;2023-05-21T13:37:48;7.45;;;5.55;;
34739;SDS011;20967;48.442;9.994;2023-05-21T13:40:15;12.75;;;5.12;;
34739;SDS011;20967;48.442;9.994;2023-05-21T13:42:45;11.38;;;6.65;;
34739;SDS011;20967;48.442;9.994;2023-05-21T13:45:17;11.55;;;5.92;;
34739;SDS011;20967;48.442;9.994;2023-05-21T13:47:46;9.10;;;5.58;;
34739;SDS011;20967;48.442;9.994;2023-05-21T13:50:15;13.50;;;6.15;;
34739;SDS011;20967;48.442;9.994;2023-05-21T13:52:46;12.40;;;6.17;;
34739;SDS011;20967;48.442;9.994;2023-05-21T13:55:16;11.48;;;6.55;;
34739;SDS011;20967;48.442;9.994;2023-05-21T13:57:45;10.15;;;5.33;;
34739;SDS011;20967;48.442;9.994;2023-05-21T14:00:15;7.47;;;5.33;;
34739;SDS011;20967;48.442;9.994;2023-05-21T14:02:44;10.90;;;5.33;;
34739;SDS011;20967;48.442;9.994;2023-05-21T14:05:14;7.33;;;4.62;;
34739;SDS011;20967;48.442;9.994;2023-05-21T14:07:43;9.63;;;4.58;;
34739;SDS011;20967;48.442;9.994;2023-05-21T14:10:13;10.88;;;5.42;;
34739;SDS011;20967;48.442;9.994;2023-05-21T14:12:42;8.63;;;5.12;;
34739;SDS011;20967;48.442;9.994;2023-05-21T14:15:13;12.50;;;5.45;;
34739;SDS011;20967;48.442;9.994;2023-05-21T14:17:41;7.90;;;4.87;;
34739;SDS011;20967;48.442;9.994;2023-05-21T14:20:10;7.15;;;3.95;;
34739;SDS011;20967;48.442;9.994;2023-05-21T14:22:38;6.85;;;3.87;;
34739;SDS011;20967;48.442;9.994;2023-05-21T14:25:06;5.87;;;3.33;;
34739;SDS011;20967;48.442;9.994;2023-05-21T14:27:34;6.95;;;3.70;;
34739;SDS011;20967;48.442;9.994;2023-05-21T14:30:03;8.33;;;3.87;;
34739;SDS011;20967;48.442;9.994;2023-05-21T14:32:31;10.60;;;4.40;;
34739;SDS011;20967;48.442;9.994;2023-05-21T14:34:58;10.08;;;4.67;;
34739;SDS011;20967;48.442;9.994;2023-05-21T14:37:26;7.55;;;4.35;;
34739;SDS011;20967;48.442;9.994;2023-05-21T14:39:57;7.03;;;3.80;;
34739;SDS011;20967;48.442;9.994;2023-05-21T14:42:25;8.78;;;4.35;;
34739;SDS011;20967;48.442;9.994;2023-05-21T14:44:55;6.67;;;3.77;;
34739;SDS011;20967;48.442;9.994;2023-05-21T14:47:24;8.95;;;4.08;;
34739;SDS011;20967;48.442;9.994;2023-05-21T14:49:52;8.58;;;3.98;;
34739;SDS011;20967;48.442;9.994;2023-05-21T14:52:21;7.42;;;4.37;;
34739;SDS011;20967;48.442;9.994;2023-05-21T14:54:49;5.78;;;3.90;;
34739;SDS011;20967;48.442;9.994;2023-05-21T14:57:17;10.10;;;4.17;;
34739;SDS011;20967;48.442;9.994;2023-05-21T14:59:45;8.63;;;4.87;;
34739;SDS011;20967;48.442;9.994;2023-05-21T15:02:13;8.30;;;4.62;;
34739;SDS011;20967;48.442;9.994;2023-05-21T15:04:43;9.73;;;4.58;;
34739;SDS011;20967;48.442;9.994;2023-05-21T15:07:10;9.88;;;4.95;;
34739;SDS011;20967;48.442;9.994;2023-05-21T15:09:38;8.68;;;4.45;;
34739;SDS011;20967;48.442;9.994;2023-05-21T15:12:06;9.35;;;4.50;;
34739;SDS011;20967;48.442;9.994;2023-05-21T15:14:34;7.15;;;4.58;;
34739;SDS011;20967;48.442;9.994;2023-05-21T15:17:04;10.38;;;4.60;;
34739;SDS011;20967;48.442;9.994;2023-05-21T15:19:32;9.15;;;5.25;;
34739;SDS011;20967;48.442;9.994;2023-05-21T15:22:00;11.70;;;5.10;;
34739;SDS011;20967;48.442;9.994;2023-05-21T15:24:28;9.63;;;5.08;;
34739;SDS011;20967;48.442;9.994;2023-05-21T15:26:55;11.22;;;4.67;;
34739;SDS011;20967;48.442;9.994;2023-05-21T15:29:27;7.70;;;5.12;;
34739;SDS011;20967;48.442;9.994;2023-05-21T15:31:55;7.78;;;4.90;;
34739;SDS011;20967;48.442;9.994;2023-05-21T15:34:25;7.20;;;4.40;;
34739;SDS011;20967;48.442;9.994;2023-05-21T15:36:53;9.85;;;5.10;;
34739;SDS011;20967;48.442;9.994;2023-05-21T15:39:22;10.98;;;5.08;;
34739;SDS011;20967;48.442;9.994;2023-05-21T15:41:53;9.03;;;5.03;;
34739;SDS011;20967;48.442;9.994;2023-05-21T15:44:23;6.95;;;4.72;;
34739;SDS011;20967;48.442;9.994;2023-05-21T15:46:51;11.78;;;5.65;;
34739;SDS011;20967;48.442;9.994;2023-05-21T15:49:19;10.80;;;5.00;;
34739;SDS011;20967;48.442;9.994;2023-05-21T15:51:47;9.70;;;5.58;;
34739;SDS011;20967;48.442;9.994;2023-05-21T15:54:15;8.75;;;5.10;;
34739;SDS011;20967;48.442;9.994;2023-05-21T15:56:43;8.38;;;5.62;;
34739;SDS011;20967;48.442;9.994;2023-05-21T15:59:12;8.80;;;5.20;;
34739;SDS011;20967;48.442;9.994;2023-05-21T16:01:40;7.65;;;4.85;;
34739;SDS011;20967;48.442;9.994;2023-05-21T16:04:08;9.23;;;5.10;;